createdAt,value
2023-04-01T00:02:30.129Z,4.95
2023-04-01T00:07:32.872Z,4.97
2023-04-01T00:12:35.689Z,4.85
2023-04-01T00:17:38.703Z,4.70
2023-04-01T00:22:42.005Z,6.57
2023-04-01T00:27:44.252Z,7.22
2023-04-01T00:32:46.865Z,5.35
2023-04-01T00:37:49.642Z,5.35
2023-04-01T00:42:51.865Z,5.25
2023-04-01T00:47:54.488Z,6.20
2023-04-01T00:52:56.991Z,5.70
2023-04-01T00:58:01.160Z,5.80
2023-04-01T01:03:05.207Z,5.90
2023-04-01T01:08:16.749Z,6.25
2023-04-01T01:13:23.073Z,6.23
2023-04-01T01:18:42.331Z,6.30
2023-04-01T01:24:04.262Z,8.18
2023-04-01T01:29:15.685Z,5.05
2023-04-01T01:34:24.422Z,6.05
2023-04-01T01:39:30.286Z,5.73
2023-04-01T01:44:34.909Z,4.93
2023-04-01T01:49:39.503Z,5.85
2023-04-01T01:54:52.490Z,4.75
2023-04-01T01:59:59.807Z,6.10
2023-04-01T02:05:03.973Z,4.73
2023-04-01T02:10:07.479Z,5.12
2023-04-01T02:15:13.524Z,6.68
2023-04-01T02:20:22.497Z,4.45
2023-04-01T02:25:29.507Z,4.37
2023-04-01T02:30:34.533Z,4.13
2023-04-01T02:35:38.644Z,5.05
2023-04-01T02:40:51.889Z,4.10
2023-04-01T02:45:54.630Z,2.75
2023-04-01T02:50:57.256Z,4.00
2023-04-01T02:55:59.485Z,5.07
2023-04-01T03:01:01.834Z,3.65
2023-04-01T03:06:13.762Z,3.83
2023-04-01T03:11:16.041Z,4.25
2023-04-01T03:16:18.368Z,4.30
2023-04-01T03:21:24.824Z,5.53
2023-04-01T03:26:30.204Z,4.55
2023-04-01T03:31:32.666Z,3.17
2023-04-01T03:36:34.967Z,3.37
2023-04-01T03:41:39.370Z,3.78
2023-04-01T03:46:42.164Z,7.13
2023-04-01T03:51:44.947Z,5.82
2023-04-01T03:56:47.808Z,5.60
2023-04-01T04:01:50.067Z,3.78
2023-04-01T04:06:52.310Z,4.07
2023-04-01T04:11:54.643Z,3.60
2023-04-01T04:16:56.832Z,4.12
2023-04-01T04:22:01.725Z,3.72
2023-04-01T04:27:04.523Z,3.78
2023-04-01T04:32:06.975Z,6.32
2023-04-01T04:37:09.388Z,4.00
2023-04-01T04:42:11.567Z,4.28
2023-04-01T04:47:15.532Z,4.80
2023-04-01T04:52:17.805Z,4.85
2023-04-01T04:57:20.064Z,5.72
2023-04-01T05:02:24.874Z,5.77
2023-04-01T05:07:28.730Z,5.37
2023-04-01T05:12:30.962Z,5.07
2023-04-01T05:17:34.455Z,5.10
2023-04-01T05:22:36.654Z,5.30
2023-04-01T05:27:38.909Z,6.93
2023-04-01T05:32:41.329Z,4.35
2023-04-01T05:37:43.531Z,4.97
2023-04-01T05:42:45.897Z,4.55
2023-04-01T05:47:48.091Z,4.87
2023-04-01T05:52:50.345Z,5.43
2023-04-01T05:57:52.515Z,4.65
2023-04-01T06:02:55.606Z,4.62
2023-04-01T06:08:05.193Z,5.62
2023-04-01T06:13:26.343Z,5.03
2023-04-01T06:18:51.056Z,5.43
2023-04-01T06:23:59.053Z,4.82
2023-04-01T06:29:29.971Z,6.07
2023-04-01T06:34:50.777Z,4.78
2023-04-01T06:40:26.774Z,6.30
2023-04-01T06:45:32.467Z,6.30
2023-04-01T06:51:05.741Z,5.45
2023-04-01T06:56:20.710Z,5.35
2023-04-01T07:01:49.754Z,5.68
2023-04-01T07:06:57.071Z,5.90
2023-04-01T07:12:07.317Z,6.90
2023-04-01T07:17:25.710Z,6.35
2023-04-01T07:22:39.236Z,6.32
2023-04-01T07:27:45.668Z,5.72
2023-04-01T07:33:00.628Z,5.15
2023-04-01T07:38:43.048Z,5.93
2023-04-01T07:43:54.389Z,5.12
2023-04-01T07:49:19.374Z,4.32
2023-04-01T07:54:41.785Z,5.07
2023-04-01T08:00:15.614Z,4.57
2023-04-01T08:05:27.081Z,4.53
2023-04-01T08:10:53.698Z,4.60
2023-04-01T08:16:17.347Z,4.30
2023-04-01T08:21:31.435Z,4.47
2023-04-01T08:26:41.593Z,4.47
2023-04-01T08:31:56.305Z,4.20
2023-04-01T08:37:04.317Z,4.68
2023-04-01T08:42:37.805Z,4.93
2023-04-01T08:48:20.896Z,4.20
2023-04-01T08:54:02.461Z,5.78
2023-04-01T08:59:20.051Z,4.17
2023-04-01T09:04:34.580Z,4.78
2023-04-01T09:10:14.382Z,6.37
2023-04-01T09:15:28.878Z,5.73
2023-04-01T09:21:08.881Z,5.60
2023-04-01T09:26:38.921Z,4.37
2023-04-01T09:32:06.984Z,6.00
2023-04-01T09:37:39.987Z,6.30
2023-04-01T09:43:07.581Z,5.90
2023-04-01T09:48:18.966Z,5.53
2023-04-01T09:53:37.745Z,5.53
2023-04-01T09:58:58.461Z,6.37
2023-04-01T10:04:06.055Z,6.70
2023-04-01T10:09:39.080Z,6.93
2023-04-01T10:15:25.676Z,6.65
2023-04-01T10:20:57.576Z,8.17
2023-04-01T10:26:16.821Z,6.15
2023-04-01T10:31:35.474Z,7.62
2023-04-01T10:37:17.416Z,6.67
2023-04-01T10:42:56.940Z,5.53
2023-04-01T10:48:23.483Z,6.73
2023-04-01T10:54:08.000Z,6.47
2023-04-01T10:59:25.208Z,7.68
2023-04-01T11:04:55.393Z,6.67
2023-04-01T11:10:13.605Z,6.55
2023-04-01T11:15:31.256Z,7.77
2023-04-01T11:21:04.781Z,6.37
2023-04-01T11:26:32.255Z,8.32
2023-04-01T11:32:19.403Z,5.63
2023-04-01T11:37:56.058Z,6.18
2023-04-01T11:43:35.913Z,5.90
2023-04-01T11:49:05.802Z,6.72
2023-04-01T11:54:19.742Z,7.53
2023-04-01T11:59:41.582Z,7.45
2023-04-01T12:05:09.087Z,6.05
2023-04-01T12:10:42.994Z,8.43
2023-04-01T12:16:22.679Z,5.22
2023-04-01T12:21:43.479Z,4.45
2023-04-01T12:27:31.484Z,5.63
2023-04-01T12:32:55.233Z,6.47
2023-04-01T12:38:34.761Z,6.00
2023-04-01T12:43:58.350Z,5.80
2023-04-01T12:49:06.630Z,5.97
2023-04-01T12:54:36.729Z,6.23
2023-04-01T12:59:38.814Z,4.97
2023-04-01T13:04:46.777Z,4.60
2023-04-01T13:10:05.074Z,5.43
2023-04-01T13:15:09.967Z,5.68
2023-04-01T13:20:38.440Z,6.33
2023-04-01T13:26:07.071Z,5.35
2023-04-01T13:31:24.602Z,5.60
2023-04-01T13:36:42.872Z,5.45
2023-04-01T13:42:14.431Z,5.25
2023-04-01T13:47:48.905Z,7.43
2023-04-01T13:53:08.182Z,6.12
2023-04-01T13:58:33.484Z,4.93
2023-04-01T14:04:10.755Z,5.50
2023-04-01T14:09:37.366Z,6.30
2023-04-01T14:14:48.746Z,5.07
2023-04-01T14:20:08.676Z,5.35
2023-04-01T14:25:19.620Z,6.33
2023-04-01T14:30:24.780Z,4.80
2023-04-01T14:35:47.555Z,5.12
2023-04-01T14:41:03.922Z,5.20
2023-04-01T14:46:24.877Z,6.75
2023-04-01T14:51:34.959Z,5.63
2023-04-01T14:56:37.088Z,6.50
2023-04-01T15:02:07.855Z,5.55
2023-04-01T15:07:47.636Z,5.60
2023-04-01T15:13:11.353Z,6.65
2023-04-01T15:18:13.569Z,4.93
2023-04-01T15:23:30.508Z,4.68
2023-04-01T15:29:08.813Z,5.72
2023-04-01T15:34:47.109Z,5.97
2023-04-01T15:39:58.529Z,4.57
2023-04-01T15:45:27.380Z,5.33
2023-04-01T15:50:32.678Z,4.62
2023-04-01T15:56:00.608Z,4.55
2023-04-01T16:01:17.396Z,3.63
2023-04-01T16:06:46.813Z,4.55
2023-04-01T16:11:48.879Z,3.63
2023-04-01T16:16:56.757Z,2.47
2023-04-01T16:22:32.137Z,3.35
2023-04-01T16:27:56.230Z,5.20
2023-04-01T16:33:14.487Z,3.72
2023-04-01T16:38:37.434Z,6.67
2023-04-01T16:43:48.891Z,7.07
2023-04-01T16:49:15.012Z,6.65
2023-04-01T16:54:29.142Z,13.40
2023-04-01T16:59:58.856Z,6.15
2023-04-01T17:05:13.014Z,7.53
2023-04-01T17:10:37.292Z,5.37
2023-04-01T17:15:53.694Z,13.45
2023-04-01T17:21:22.186Z,10.93
2023-04-01T17:26:33.274Z,7.35
2023-04-01T17:32:03.821Z,8.20
2023-04-01T17:37:32.980Z,9.63
2023-04-01T17:42:55.368Z,9.45
2023-04-01T17:48:16.437Z,12.47
2023-04-01T17:53:44.610Z,6.10
2023-04-01T17:59:28.659Z,7.60
2023-04-01T18:04:53.640Z,6.20
2023-04-01T18:10:02.643Z,8.93
2023-04-01T18:15:27.808Z,7.22
2023-04-01T18:20:48.033Z,7.75
2023-04-01T18:25:56.586Z,9.83
2023-04-01T18:31:06.955Z,7.47
2023-04-01T18:36:17.360Z,7.40
2023-04-01T18:41:44.076Z,7.90
2023-04-01T18:47:03.765Z,6.53
2023-04-01T18:52:34.801Z,7.00
2023-04-01T18:57:51.476Z,7.47
2023-04-01T19:02:59.907Z,8.48
2023-04-01T19:08:31.917Z,7.97
2023-04-01T19:13:48.083Z,8.57
2023-04-01T19:19:16.244Z,7.70
2023-04-01T19:25:16.724Z,8.15
2023-04-01T19:30:57.640Z,6.72
2023-04-01T19:36:21.906Z,6.97
2023-04-01T19:41:45.651Z,6.57
2023-04-01T19:46:54.569Z,6.47
2023-04-01T19:52:29.086Z,10.48
2023-04-01T19:57:43.609Z,7.22
2023-04-01T20:03:02.403Z,7.40
2023-04-01T20:08:27.098Z,7.72
2023-04-01T20:13:38.423Z,7.80
2023-04-01T20:18:50.563Z,7.37
2023-04-01T20:24:14.510Z,8.05
2023-04-01T20:29:16.589Z,9.73
2023-04-01T20:34:34.383Z,9.10
2023-04-01T20:39:36.928Z,10.73
2023-04-01T20:44:43.100Z,10.18
2023-04-01T20:50:01.545Z,9.02
2023-04-01T20:55:22.113Z,8.95
2023-04-01T21:00:53.512Z,9.55
2023-04-01T21:06:16.986Z,9.27
2023-04-01T21:11:56.317Z,11.48
2023-04-01T21:17:01.129Z,8.82
2023-04-01T21:22:24.499Z,11.55
2023-04-01T21:27:48.962Z,10.77
2023-04-01T21:33:17.450Z,9.37
2023-04-01T21:38:28.792Z,10.02
2023-04-01T21:43:53.622Z,10.15
2023-04-01T21:49:38.530Z,10.73
2023-04-01T21:55:08.356Z,7.70
2023-04-01T22:00:18.569Z,6.10
2023-04-01T22:05:48.511Z,6.57
2023-04-01T22:10:59.916Z,6.72
2023-04-01T22:16:26.934Z,6.07
2023-04-01T22:21:39.316Z,6.57
2023-04-01T22:26:50.594Z,7.13
2023-04-01T22:32:09.345Z,6.35
2023-04-01T22:37:29.752Z,6.68
2023-04-01T22:43:09.111Z,6.80
2023-04-01T22:48:30.041Z,8.30
2023-04-01T22:54:17.276Z,6.40
2023-04-01T22:59:25.296Z,5.55
2023-04-01T23:04:34.763Z,6.60
2023-04-01T23:09:38.746Z,6.30
2023-04-01T23:14:47.613Z,6.30
2023-04-01T23:19:58.605Z,6.07
2023-04-01T23:25:21.924Z,7.05
2023-04-01T23:30:39.440Z,7.05
2023-04-01T23:35:55.042Z,5.47
2023-04-01T23:40:57.229Z,6.78
2023-04-01T23:46:05.224Z,5.50
2023-04-01T23:51:39.790Z,5.90
2023-04-01T23:56:47.441Z,5.53
